Time;durP1;ratioP1;P1;durP2;ratioP2;P2;SDS_P1;SDS_P2;PMS_P1;PMS_P2;Temp;Humidity;BMP_temperature;BMP_pressure;BME280_temperature;BME280_humidity;BME280_pressure;Samples;Min_cycle;Max_cycle;Signal;HPM_P1;HPM_P2
2022/09/26 00:02:08;;;;;;;10.50;8.37;;;;;;;8.94;100.00;95141.53;4964512;28;20189;-87
2022/09/26 00:04:34;;;;;;;9.03;8.13;;;;;;;8.89;100.00;95143.72;4971788;28;20195;-86
2022/09/26 00:06:59;;;;;;;13.50;8.63;;;;;;;8.74;100.00;95135.66;4954553;28;20209;-86
2022/09/26 00:09:26;;;;;;;9.40;8.40;;;;;;;8.63;100.00;95135.84;4962581;28;20195;-87
2022/09/26 00:11:52;;;;;;;12.30;8.30;;;;;;;8.59;100.00;95144.88;4945296;28;20532;-88
2022/09/26 00:14:23;;;;;;;10.70;8.27;;;;;;;8.57;100.00;95139.06;4949035;28;20248;-86
2022/09/26 00:16:48;;;;;;;13.93;7.70;;;;;;;8.52;100.00;95146.41;4946270;28;20262;-87
2022/09/26 00:19:14;;;;;;;10.10;7.90;;;;;;;8.43;100.00;95139.53;4967772;28;20180;-86
2022/09/26 00:21:39;;;;;;;10.47;8.27;;;;;;;8.42;100.00;95132.72;4955671;28;20550;-86
2022/09/26 00:24:05;;;;;;;11.23;6.73;;;;;;;8.28;100.00;95133.16;4971415;28;20203;-85
2022/09/26 00:26:32;;;;;;;7.73;6.03;;;;;;;8.43;100.00;95130.00;4954067;28;20266;-86
2022/09/26 00:28:58;;;;;;;9.03;6.80;;;;;;;8.26;100.00;95122.97;4946351;28;20235;-87
2022/09/26 00:31:26;;;;;;;8.03;6.00;;;;;;;8.26;100.00;95119.56;4982620;28;20236;-86
2022/09/26 00:33:52;;;;;;;8.33;5.20;;;;;;;8.18;100.00;95123.66;4953736;28;20197;-88
2022/09/26 00:36:17;;;;;;;10.87;5.60;;;;;;;8.11;100.00;95116.63;4962509;28;20335;-86
2022/09/26 00:38:43;;;;;;;9.03;5.33;;;;;;;8.11;100.00;95116.63;4967797;28;20246;-85
2022/09/26 00:41:08;;;;;;;6.73;5.27;;;;;;;8.05;100.00;95110.28;4942975;28;20192;-86
2022/09/26 00:43:39;;;;;;;9.20;4.70;;;;;;;8.12;100.00;95107.91;4957500;28;20192;-86
2022/09/26 00:46:18;;;;;;;4.33;3.80;;;;;;;8.22;100.00;95113.88;4939720;28;20201;-86
2022/09/26 00:48:45;;;;;;;6.80;4.50;;;;;;;8.13;100.00;95112.97;4967839;28;20209;-87
2022/09/26 00:51:10;;;;;;;6.20;4.03;;;;;;;8.19;100.00;95109.78;4971852;28;20188;-86
2022/09/26 00:53:41;;;;;;;9.37;4.70;;;;;;;8.17;100.00;95116.06;4967155;28;20587;-86
2022/09/26 00:56:16;;;;;;;5.50;4.10;;;;;;;8.15;100.00;95103.28;4946045;28;20868;-85
2022/09/26 00:58:45;;;;;;;7.63;4.10;;;;;;;8.12;100.00;95097.56;4947859;28;20456;-85
2022/09/26 01:01:10;;;;;;;6.47;4.10;;;;;;;8.14;100.00;95095.66;4948965;28;20551;-86
2022/09/26 01:03:37;;;;;;;5.37;3.67;;;;;;;8.10;100.00;95089.94;4962567;28;20191;-87
2022/09/26 01:06:02;;;;;;;13.67;3.97;;;;;;;8.16;100.00;95093.75;4976731;28;20231;-86
2022/09/26 01:08:31;;;;;;;7.13;3.87;;;;;;;8.19;100.00;95096.03;4947487;28;20213;-88
2022/09/26 01:10:57;;;;;;;8.07;4.00;;;;;;;8.17;99.97;95095.38;4963723;28;20562;-86
2022/09/26 01:13:24;;;;;;;4.90;3.43;;;;;;;8.18;99.98;95097.81;4966106;28;20192;-85
2022/09/26 01:15:49;;;;;;;5.97;3.90;;;;;;;8.19;99.85;95098.63;4954032;28;20670;-86
2022/09/26 01:18:15;;;;;;;5.93;3.73;;;;;;;8.17;99.41;95096.19;4963109;28;20185;-85
2022/09/26 01:21:00;;;;;;;4.10;3.70;;;;;;;8.20;99.14;95090.72;4963458;28;20714;-85
2022/09/26 01:23:49;;;;;;;6.10;3.27;;;;;;;8.21;98.80;95086.34;4934912;28;20184;-86
2022/09/26 01:26:28;;;;;;;7.10;3.50;;;;;;;8.30;98.72;95088.06;4953964;28;20212;-85
2022/09/26 01:29:09;;;;;;;8.27;3.63;;;;;;;8.32;98.23;95087.94;4957405;28;20728;-85
2022/09/26 01:32:47;;;;;;;4.70;3.53;;;;;;;8.33;97.74;95087.00;4966694;28;20235;-86
2022/09/26 01:34:54;;;;;;;7.90;3.47;;;;;;;8.38;97.39;95095.97;4966889;28;20666;-86
2022/09/26 01:37:42;;;;;;;5.97;3.83;;;;;;;8.46;97.41;95098.63;4962467;28;20267;-87
2022/09/26 01:40:22;;;;;;;4.07;3.20;;;;;;;8.49;97.09;95093.19;4951738;28;20573;-86
2022/09/26 01:43:01;;;;;;;5.90;3.23;;;;;;;8.54;96.46;95095.31;4967415;28;20184;-86
2022/09/26 01:45:32;;;;;;;4.50;3.20;;;;;;;8.54;95.93;95091.91;4967410;28;20184;-86
2022/09/26 01:48:17;;;;;;;6.60;3.03;;;;;;;8.55;95.16;95094.34;4945591;28;20216;-88
2022/09/26 01:50:56;;;;;;;4.93;3.10;;;;;;;8.64;95.08;95090.88;4953956;28;20192;-85
2022/09/26 01:53:25;;;;;;;7.00;3.00;;;;;;;8.66;95.28;95090.78;4953571;28;20670;-86
2022/09/26 01:55:55;;;;;;;5.00;3.10;;;;;;;8.59;95.58;95087.94;4941869;28;20208;-86
2022/09/26 01:58:27;;;;;;;4.77;3.20;;;;;;;8.58;95.93;95088.91;4965034;28;20189;-85
2022/09/26 02:00:57;;;;;;;5.97;3.50;;;;;;;8.63;95.42;95086.69;4947570;28;20236;-85
2022/09/26 02:03:26;;;;;;;5.90;3.40;;;;;;;8.65;95.70;95083.94;4948388;28;20402;-85
2022/09/26 02:06:02;;;;;;;5.27;3.03;;;;;;;8.59;95.83;95081.97;4950256;28;20271;-88
2022/09/26 02:08:32;;;;;;;5.43;2.83;;;;;;;8.48;97.21;95077.78;4938449;28;20213;-86
2022/09/26 02:11:03;;;;;;;5.83;3.00;;;;;;;8.49;97.44;95064.72;4959699;28;20189;-85
2022/09/26 02:13:34;;;;;;;3.73;2.50;;;;;;;8.47;97.40;95070.97;4948949;28;20195;-86
2022/09/26 02:16:07;;;;;;;6.13;3.20;;;;;;;8.66;96.21;95068.28;4941343;28;20212;-86
2022/09/26 02:18:50;;;;;;;8.00;3.17;;;;;;;8.64;95.95;95070.19;4934871;28;20221;-85
2022/09/26 02:21:19;;;;;;;5.67;3.40;;;;;;;8.66;96.25;95070.06;4953376;28;20700;-85
2022/09/26 02:23:46;;;;;;;5.40;3.37;;;;;;;8.66;96.75;95073.47;4963384;28;20239;-86
2022/09/26 02:26:11;;;;;;;6.73;3.07;;;;;;;8.70;96.58;95072.19;4960811;28;20267;-86
2022/09/26 02:28:36;;;;;;;4.87;3.47;;;;;;;8.73;96.22;95058.94;4965182;28;20241;-86
2022/09/26 02:31:04;;;;;;;3.30;3.00;;;;;;;8.76;96.80;95061.25;4961846;28;20185;-88
2022/09/26 02:33:30;;;;;;;4.90;3.20;;;;;;;8.75;96.45;95062.22;4965070;28;20177;-86
2022/09/26 02:35:56;;;;;;;8.53;3.13;;;;;;;8.73;96.25;95060.72;4962663;28;20580;-86
2022/09/26 02:38:28;;;;;;;6.23;3.37;;;;;;;8.74;95.86;95057.97;4942361;28;20201;-86
2022/09/26 02:41:17;;;;;;;4.30;3.30;;;;;;;8.71;96.31;95047.94;4938190;28;20192;-86
2022/09/26 02:43:51;;;;;;;8.20;3.30;;;;;;;8.75;96.07;95053.66;4963598;28;20189;-86
2022/09/26 02:46:37;;;;;;;9.70;3.80;;;;;;;8.63;97.60;95041.88;4961567;28;20211;-86
2022/09/26 02:49:19;;;;;;;4.90;3.13;;;;;;;8.66;97.76;95047.56;4951792;28;20201;-85
2022/09/26 02:52:22;;;;;;;6.97;3.67;;;;;;;8.71;97.41;95042.75;4971772;28;20206;-86
2022/09/26 02:55:09;;;;;;;5.27;3.17;;;;;;;8.67;97.38;95038.84;4966087;28;20199;-86
2022/09/26 02:58:16;;;;;;;5.77;3.80;;;;;;;8.67;97.37;95035.44;4958148;28;20220;-86
2022/09/26 03:00:52;;;;;;;5.90;3.37;;;;;;;8.74;97.86;95028.69;4948290;28;20205;-86
2022/09/26 03:03:22;;;;;;;5.03;3.73;;;;;;;8.51;99.27;95031.75;4959299;28;20188;-86
2022/09/26 03:05:51;;;;;;;5.07;3.43;;;;;;;8.50;100.00;95031.91;4937861;29;20303;-85
2022/09/26 03:08:19;;;;;;;4.33;3.87;;;;;;;8.48;100.00;95032.03;4948037;28;20224;-86
2022/09/26 03:10:46;;;;;;;4.70;3.57;;;;;;;8.49;100.00;95027.69;4943129;29;20189;-85
2022/09/26 03:13:14;;;;;;;7.30;4.20;;;;;;;8.42;100.00;95018.88;4942969;28;20288;-88
2022/09/26 03:15:41;;;;;;;6.93;4.20;;;;;;;8.37;100.00;95014.13;4960566;28;20287;-88
2022/09/26 03:18:10;;;;;;;7.30;4.20;;;;;;;8.43;100.00;95008.38;4961545;28;20272;-86
2022/09/26 03:20:35;;;;;;;5.50;4.33;;;;;;;8.47;100.00;95011.47;4951418;28;20635;-87
2022/09/26 03:23:02;;;;;;;5.13;4.23;;;;;;;8.45;99.79;95011.63;4964956;28;20189;-86
2022/09/26 03:25:27;;;;;;;7.17;4.03;;;;;;;8.48;99.35;95011.34;4941315;28;20220;-86
2022/09/26 03:27:53;;;;;;;6.03;4.30;;;;;;;8.49;99.51;95014.75;4959319;28;20641;-86
2022/09/26 03:30:20;;;;;;;6.27;4.27;;;;;;;8.50;99.28;95009.41;4945541;28;20693;-86
2022/09/26 03:32:46;;;;;;;6.03;3.90;;;;;;;8.46;99.00;95007.25;4956090;28;20685;-86
2022/09/26 03:35:11;;;;;;;4.57;4.17;;;;;;;8.47;98.85;95012.28;4969341;28;20239;-86
2022/09/26 03:37:37;;;;;;;8.40;4.33;;;;;;;8.47;98.67;95003.72;4946824;28;20224;-85
2022/09/26 03:40:03;;;;;;;5.23;4.00;;;;;;;8.48;98.39;95005.31;4958502;28;20193;-86
2022/09/26 03:42:31;;;;;;;5.73;3.73;;;;;;;8.47;97.73;95009.69;4975087;28;20205;-88
2022/09/26 03:44:58;;;;;;;5.80;3.90;;;;;;;8.48;97.91;95005.31;4942993;29;20193;-86
2022/09/26 03:47:23;;;;;;;4.73;3.10;;;;;;;8.36;97.90;94996.16;4963909;28;20205;-85
2022/09/26 03:49:48;;;;;;;6.43;3.40;;;;;;;8.53;96.41;94995.34;4966788;28;20201;-85
2022/09/26 03:52:14;;;;;;;5.30;3.73;;;;;;;8.57;95.58;94982.91;4966562;28;20204;-89
2022/09/26 03:54:39;;;;;;;4.77;3.20;;;;;;;8.61;94.57;94985.06;4934886;29;20236;-86
2022/09/26 03:57:05;;;;;;;5.67;3.40;;;;;;;8.62;94.13;94973.75;4949993;28;20205;-84
2022/09/26 03:59:30;;;;;;;5.80;4.00;;;;;;;8.58;94.09;94974.22;4975134;28;20211;-86
2022/09/26 04:01:55;;;;;;;3.40;2.87;;;;;;;8.51;92.58;94953.28;4957928;28;20193;-84
2022/09/26 04:04:20;;;;;;;2.90;2.60;;;;;;;8.50;92.09;94951.69;4960913;28;20187;-85
2022/09/26 04:06:46;;;;;;;3.90;2.60;;;;;;;8.53;91.81;94948.78;4940550;28;20212;-84
2022/09/26 04:09:11;;;;;;;4.23;2.43;;;;;;;8.51;91.77;94948.13;4960070;28;20200;-84
2022/09/26 04:11:37;;;;;;;5.83;2.87;;;;;;;8.46;91.62;94945.16;4960991;28;20189;-85
2022/09/26 04:14:02;;;;;;;4.20;2.80;;;;;;;8.39;92.04;94950.13;4961654;28;20207;-84
2022/09/26 04:16:28;;;;;;;5.87;2.90;;;;;;;8.28;91.41;94941.72;4928263;28;20255;-84
2022/09/26 04:22:03;;;;;;;6.10;3.00;;;;;;;8.26;92.70;94933.31;4980256;28;20172;-87
2022/09/26 04:24:28;;;;;;;4.83;2.83;;;;;;;8.14;93.91;94938.72;4970730;28;20558;-84
2022/09/26 04:26:54;;;;;;;5.17;2.60;;;;;;;8.07;95.14;94931.69;4939640;29;20213;-85
2022/09/26 04:29:19;;;;;;;5.17;3.20;;;;;;;8.01;96.21;94935.66;4954371;28;20623;-85
2022/09/26 04:31:45;;;;;;;4.87;4.10;;;;;;;7.95;96.48;94937.09;4971531;28;20559;-85
2022/09/26 04:34:10;;;;;;;7.40;3.70;;;;;;;7.94;95.83;94926.88;4960939;28;20195;-85
2022/09/26 04:36:36;;;;;;;5.73;3.50;;;;;;;7.85;96.43;94925.16;4952876;28;20642;-84
2022/09/26 04:39:01;;;;;;;5.10;3.23;;;;;;;7.83;96.47;94921.91;4951803;28;20188;-85
2022/09/26 04:41:28;;;;;;;5.33;3.50;;;;;;;7.85;96.21;94917.41;4955837;28;20704;-84
2022/09/26 04:43:54;;;;;;;6.17;3.37;;;;;;;7.88;96.41;94920.53;4940084;28;20765;-84
2022/09/26 04:46:21;;;;;;;7.93;4.23;;;;;;;7.84;95.89;94919.19;4939225;28;20248;-85
2022/09/26 04:48:47;;;;;;;5.10;4.53;;;;;;;7.84;96.04;94926.94;4971169;28;20204;-83
2022/09/26 04:51:14;;;;;;;6.67;4.13;;;;;;;7.71;95.97;94918.72;4970508;28;20199;-84
2022/09/26 04:53:40;;;;;;;6.40;4.43;;;;;;;7.78;96.12;94916.38;4956335;28;20227;-83
2022/09/26 04:56:08;;;;;;;8.33;4.97;;;;;;;7.77;95.72;94909.56;4948398;28;20263;-84
2022/09/26 04:58:33;;;;;;;7.40;4.50;;;;;;;7.73;95.45;94908.25;4988684;28;20646;-85
2022/09/26 05:01:06;;;;;;;7.53;4.30;;;;;;;7.73;95.60;94908.25;4971393;28;20192;-83
2022/09/26 05:03:31;;;;;;;8.93;4.77;;;;;;;7.69;95.69;94914.66;4970432;28;20283;-83
2022/09/26 05:05:57;;;;;;;8.90;3.90;;;;;;;7.70;95.59;94911.13;4948105;28;20251;-83
2022/09/26 05:08:23;;;;;;;6.27;3.83;;;;;;;7.64;95.86;94908.16;4959390;28;20893;-83
2022/09/26 05:10:53;;;;;;;8.90;4.50;;;;;;;7.62;95.56;94901.50;4948161;28;20189;-84
2022/09/26 05:13:18;;;;;;;8.10;4.00;;;;;;;7.59;95.57;94904.38;4945256;28;20283;-84
2022/09/26 05:15:44;;;;;;;5.37;3.57;;;;;;;7.56;95.60;94895.13;4951204;28;20199;-83
2022/09/26 05:18:10;;;;;;;6.30;3.73;;;;;;;7.56;95.55;94900.31;4972436;28;20259;-82
2022/09/26 05:20:38;;;;;;;5.47;3.87;;;;;;;7.61;95.47;94907.63;4958196;28;20189;-82
2022/09/26 05:23:06;;;;;;;7.13;4.00;;;;;;;7.56;95.74;94895.13;4966879;28;20181;-81
2022/09/26 05:28:21;;;;;;;4.87;3.73;;;;;;;7.54;94.81;94891.91;4963834;28;20205;-87
2022/09/26 05:30:46;;;;;;;5.97;4.10;;;;;;;7.54;95.57;94893.66;4975024;28;20582;-86
2022/09/26 05:33:12;;;;;;;7.83;3.83;;;;;;;7.55;94.79;94884.97;4970987;28;20188;-86
2022/09/26 05:35:38;;;;;;;6.53;3.70;;;;;;;7.62;94.58;94883.41;4974712;28;20181;-86
2022/09/26 05:38:03;;;;;;;6.63;3.07;;;;;;;7.69;93.50;94883.66;4946614;28;20240;-85
2022/09/26 05:43:13;;;;;;;8.03;4.20;;;;;;;7.65;93.46;94888.28;4978713;28;20559;-85
2022/09/26 05:45:39;;;;;;;5.57;3.87;;;;;;;7.69;93.27;94884.47;4957551;28;20185;-85
2022/09/26 05:48:05;;;;;;;5.73;3.73;;;;;;;7.66;93.69;94882.97;4941812;28;20301;-85
2022/09/26 05:50:30;;;;;;;5.77;3.57;;;;;;;7.65;93.31;94881.34;4972975;28;20648;-85
2022/09/26 05:52:57;;;;;;;6.80;3.47;;;;;;;7.69;93.29;94886.25;4966227;28;20222;-85
2022/09/26 05:55:23;;;;;;;6.60;3.67;;;;;;;7.62;93.37;94886.00;4962862;28;20185;-86
2022/09/26 05:57:57;;;;;;;3.67;2.70;;;;;;;7.63;93.80;94891.03;4947630;28;20698;-85
2022/09/26 06:00:23;;;;;;;4.27;3.03;;;;;;;7.57;94.04;94889.00;4962359;28;20188;-85
2022/09/26 06:03:02;;;;;;;6.87;3.77;;;;;;;7.72;93.33;94881.59;4959424;28;20288;-85
2022/09/26 06:05:27;;;;;;;4.47;3.33;;;;;;;7.73;93.44;94888.38;4955132;28;20184;-87
2022/09/26 06:07:52;;;;;;;5.67;3.33;;;;;;;7.97;92.89;94887.00;4988346;28;20229;-87
2022/09/26 06:10:19;;;;;;;6.07;3.37;;;;;;;8.23;91.76;94886.09;4968752;28;20166;-88
2022/09/26 06:12:44;;;;;;;6.37;3.50;;;;;;;8.33;91.24;94893.78;4942467;28;20188;-85
2022/09/26 06:15:10;;;;;;;3.67;3.17;;;;;;;8.40;91.01;94884.50;4946918;28;20235;-85
2022/09/26 06:17:35;;;;;;;3.83;2.80;;;;;;;8.50;90.28;94889.56;4983669;28;20211;-86
2022/09/26 06:20:01;;;;;;;5.77;3.17;;;;;;;8.60;89.75;94889.47;4963931;28;20641;-85
2022/09/26 06:22:27;;;;;;;4.50;3.00;;;;;;;8.71;89.71;94891.81;4967113;28;20271;-85
2022/09/26 06:24:53;;;;;;;7.13;3.13;;;;;;;8.77;89.29;94891.22;4961707;28;20192;-85
2022/09/26 06:27:18;;;;;;;6.40;3.70;;;;;;;8.84;88.85;94892.22;4945763;28;20220;-85
2022/09/26 06:29:43;;;;;;;7.37;3.40;;;;;;;8.96;89.15;94893.56;4965282;28;20224;-86
2022/09/26 06:32:08;;;;;;;6.33;4.77;;;;;;;8.98;88.68;94888.25;4941693;28;20558;-85
2022/09/26 06:34:34;;;;;;;10.13;4.80;;;;;;;9.07;87.94;94879.56;4960673;28;20208;-85
2022/09/26 06:36:59;;;;;;;11.00;4.20;;;;;;;9.22;88.18;94878.00;4960498;28;20221;-85
2022/09/26 06:39:32;;;;;;;10.27;6.13;;;;;;;9.30;88.17;94883.22;4964042;28;20223;-85
2022/09/26 06:41:57;;;;;;;9.03;5.43;;;;;;;9.37;87.86;94878.25;4945961;28;20613;-85
2022/09/26 06:44:23;;;;;;;6.30;3.80;;;;;;;9.50;86.99;94873.41;4963104;28;20196;-85
2022/09/26 06:46:48;;;;;;;5.03;3.23;;;;;;;9.61;85.22;94864.53;4961466;28;20216;-85
2022/09/26 06:49:13;;;;;;;4.60;3.63;;;;;;;9.65;85.85;94856.28;4969195;28;20215;-86
2022/09/26 06:51:39;;;;;;;7.57;3.60;;;;;;;9.55;87.29;94857.41;4955732;28;20200;-85
2022/09/26 06:54:04;;;;;;;5.77;3.23;;;;;;;9.65;85.86;94851.09;4964205;28;20655;-85
2022/09/26 06:56:29;;;;;;;5.33;3.53;;;;;;;9.70;86.04;94848.03;4962052;28;20208;-84
2022/09/26 06:58:54;;;;;;;4.03;3.10;;;;;;;9.76;86.25;94842.22;4964388;28;20231;-85
2022/09/26 07:01:20;;;;;;;4.03;3.37;;;;;;;9.78;85.96;94847.22;4962967;28;20203;-85
2022/09/26 07:03:45;;;;;;;6.40;3.70;;;;;;;9.80;86.20;94843.50;4961481;28;20721;-85
2022/09/26 07:06:10;;;;;;;4.23;3.23;;;;;;;9.77;86.46;94840.44;4957417;28;20228;-85
2022/09/26 07:08:36;;;;;;;5.13;3.20;;;;;;;9.59;85.94;94836.19;4962610;28;20240;-85
2022/09/26 07:11:02;;;;;;;6.73;3.33;;;;;;;9.82;85.97;94838.97;4962575;28;20574;-84
2022/09/26 07:13:28;;;;;;;7.53;3.10;;;;;;;9.69;86.21;94833.44;4943794;28;20668;-85
2022/09/26 07:15:55;;;;;;;5.57;2.90;;;;;;;9.92;85.22;94831.88;4967389;28;20360;-85
2022/09/26 07:18:20;;;;;;;5.57;2.90;;;;;;;9.98;85.72;94827.78;4944750;28;20196;-85
2022/09/26 07:20:46;;;;;;;5.47;3.00;;;;;;;10.06;85.35;94829.59;4962189;28;20193;-85
2022/09/26 07:23:12;;;;;;;10.03;3.17;;;;;;;10.20;85.36;94840.13;4964638;28;20252;-85
2022/09/26 07:25:38;;;;;;;4.13;2.97;;;;;;;10.10;85.36;94836.09;4943285;29;20201;-84
2022/09/26 07:28:08;;;;;;;4.20;3.23;;;;;;;10.28;84.52;94834.16;4976082;28;20624;-85
2022/09/26 07:30:33;;;;;;;4.73;3.33;;;;;;;10.43;82.43;94835.13;4944744;28;20197;-85
2022/09/26 07:33:02;;;;;;;3.20;2.87;;;;;;;10.68;82.73;94835.88;4957920;28;20188;-86
2022/09/26 07:35:32;;;;;;;5.67;2.90;;;;;;;10.82;82.86;94829.22;4939489;28;20199;-85
2022/09/26 07:37:58;;;;;;;5.17;2.97;;;;;;;11.05;81.87;94834.53;4949542;28;20264;-84
2022/09/26 07:40:24;;;;;;;8.63;2.80;;;;;;;11.01;80.23;94826.22;4964797;28;20185;-85
2022/09/26 07:42:51;;;;;;;3.77;2.50;;;;;;;11.06;79.79;94829.16;4953268;28;20193;-85
2022/09/26 07:45:16;;;;;;;5.30;2.80;;;;;;;11.10;79.83;94826.22;4966510;28;20189;-84
2022/09/26 07:50:26;;;;;;;5.10;2.60;;;;;;;11.04;78.99;94828.50;4959008;28;20196;-84
2022/09/26 07:52:51;;;;;;;4.67;2.33;;;;;;;10.71;78.40;94826.97;4942519;28;20197;-84
2022/09/26 07:55:24;;;;;;;6.30;2.50;;;;;;;10.68;78.32;94822.09;4963688;28;20185;-84
2022/09/26 07:57:50;;;;;;;3.87;2.73;;;;;;;10.52;79.96;94822.16;4947051;28;20580;-84
2022/09/26 08:00:17;;;;;;;4.53;2.63;;;;;;;10.64;79.00;94815.63;4965307;28;20199;-85
2022/09/26 08:02:45;;;;;;;3.07;2.47;;;;;;;10.77;79.63;94815.91;4966060;28;20239;-85
2022/09/26 08:05:16;;;;;;;5.50;2.80;;;;;;;10.78;79.54;94812.34;4961444;28;20184;-84
2022/09/26 08:07:41;;;;;;;6.63;2.50;;;;;;;10.88;79.04;94812.97;4967781;28;20221;-86
2022/09/26 08:10:07;;;;;;;4.80;2.53;;;;;;;10.92;78.86;94810.84;4963707;28;20301;-84
2022/09/26 08:12:37;;;;;;;4.30;2.70;;;;;;;10.87;79.72;94815.75;4945878;28;20181;-85
2022/09/26 08:15:05;;;;;;;3.27;2.57;;;;;;;10.82;80.68;94803.25;4964156;28;20542;-85
2022/09/26 08:17:33;;;;;;;3.30;2.30;;;;;;;10.99;79.22;94810.00;4946530;28;20702;-85
2022/09/26 08:20:00;;;;;;;4.17;3.03;;;;;;;10.94;80.37;94801.09;4942030;28;20193;-84
2022/09/26 08:22:25;;;;;;;5.20;2.60;;;;;;;11.04;79.68;94807.72;4966940;28;20217;-84
2022/09/26 08:24:52;;;;;;;7.57;2.40;;;;;;;11.05;79.44;94798.16;4952918;28;20227;-84
2022/09/26 08:27:18;;;;;;;5.13;2.40;;;;;;;11.18;79.07;94798.41;4961545;28;20581;-84
2022/09/26 08:29:48;;;;;;;5.00;2.00;;;;;;;11.07;77.43;94798.78;4937158;28;20291;-85
2022/09/26 08:32:15;;;;;;;9.73;2.33;;;;;;;11.13;77.46;94795.50;4963729;28;20185;-84
2022/09/26 08:34:40;;;;;;;2.80;1.90;;;;;;;11.24;77.41;94791.72;4960127;28;20203;-85
2022/09/26 08:37:06;;;;;;;3.67;2.13;;;;;;;11.36;77.58;94790.34;4959578;28;20216;-84
2022/09/26 08:39:31;;;;;;;5.97;1.93;;;;;;;11.31;76.47;94793.47;4945874;28;20681;-84
2022/09/26 08:42:05;;;;;;;4.13;2.00;;;;;;;11.47;77.31;94781.34;4957725;28;20272;-85
2022/09/26 08:44:40;;;;;;;5.67;2.13;;;;;;;11.54;75.71;94777.91;4967122;28;20208;-84
2022/09/26 08:47:28;;;;;;;2.70;1.60;;;;;;;11.60;73.97;94777.22;4956201;28;20209;-85
2022/09/26 08:50:12;;;;;;;12.73;2.20;;;;;;;11.75;74.19;94784.25;4970800;28;20200;-85
2022/09/26 08:52:55;;;;;;;2.63;1.83;;;;;;;11.80;73.99;94782.00;4956126;28;20192;-85
2022/09/26 08:55:26;;;;;;;4.97;2.17;;;;;;;11.84;72.57;94773.69;4966073;28;20272;-84
2022/09/26 08:58:26;;;;;;;5.03;1.97;;;;;;;12.03;72.97;94775.00;4966184;28;20220;-84
2022/09/26 09:00:57;;;;;;;4.37;1.90;;;;;;;11.92;70.40;94770.19;4944508;28;20259;-84
2022/09/26 09:03:27;;;;;;;4.23;1.47;;;;;;;12.22;71.45;94780.69;4963384;28;20193;-85
2022/09/26 09:06:04;;;;;;;3.77;2.23;;;;;;;12.56;72.24;94775.00;4966455;28;20216;-85
2022/09/26 09:08:34;;;;;;;2.43;1.57;;;;;;;12.93;70.60;94785.34;4941759;29;20244;-84
2022/09/26 09:11:12;;;;;;;4.00;2.30;;;;;;;12.97;69.80;94783.19;4980182;28;20232;-84
2022/09/26 09:13:48;;;;;;;5.90;1.97;;;;;;;12.71;69.45;94771.41;4966952;28;20195;-84
2022/09/26 09:16:35;;;;;;;5.03;1.97;;;;;;;12.98;67.77;94776.97;4969421;28;20266;-84
2022/09/26 09:19:17;;;;;;;2.10;1.90;;;;;;;13.15;69.73;94781.00;4964514;28;20200;-84
2022/09/26 09:22:15;;;;;;;2.57;1.40;;;;;;;13.50;67.93;94773.41;4953356;28;20196;-85
2022/09/26 09:25:23;;;;;;;3.13;2.03;;;;;;;13.74;66.73;94773.06;4964120;28;20184;-84
2022/09/26 09:27:58;;;;;;;4.77;1.93;;;;;;;13.89;66.71;94768.59;4940392;28;20224;-84
2022/09/26 09:30:31;;;;;;;2.87;1.53;;;;;;;14.02;65.75;94778.34;4969448;28;20196;-85
2022/09/26 09:33:00;;;;;;;3.53;1.67;;;;;;;13.84;65.43;94768.34;4959013;28;20270;-85
2022/09/26 09:35:35;;;;;;;2.03;1.60;;;;;;;13.81;65.56;94766.13;4944281;28;20243;-85
2022/09/26 09:38:01;;;;;;;1.88;1.52;;;;;;;13.83;63.28;94764.13;4951694;28;20200;-86
2022/09/26 09:40:30;;;;;;;3.53;1.27;;;;;;;13.52;61.36;94763.63;4948421;28;20725;-85
2022/09/26 09:43:00;;;;;;;2.77;1.40;;;;;;;13.92;61.97;94754.38;4953540;28;20203;-86
2022/09/26 09:45:35;;;;;;;4.73;1.30;;;;;;;13.72;61.43;94759.41;4956613;28;20197;-86
2022/09/26 09:48:00;;;;;;;3.30;1.10;;;;;;;13.94;61.40;94756.78;4941896;28;20710;-85
2022/09/26 09:50:44;;;;;;;2.87;1.40;;;;;;;14.14;60.21;94763.00;4960907;28;20205;-86
2022/09/26 09:53:15;;;;;;;2.70;1.00;;;;;;;13.91;58.41;94746.72;4967398;28;20580;-87
2022/09/26 09:56:22;;;;;;;3.40;1.30;;;;;;;14.00;59.49;94751.63;4967872;28;20653;-85
2022/09/26 09:59:04;;;;;;;3.05;1.05;;;;;;;13.65;58.88;94748.09;4949204;28;20212;-86
2022/09/26 10:01:37;;;;;;;2.05;1.10;;;;;;;14.13;59.55;94746.53;4946745;28;20196;-87
2022/09/26 10:04:19;;;;;;;1.90;1.30;;;;;;;13.95;60.60;94745.34;4974069;28;20192;-85
2022/09/26 10:06:45;;;;;;;4.53;1.17;;;;;;;13.52;61.56;94743.56;4944855;28;20209;-85
2022/09/26 10:09:23;;;;;;;1.90;1.40;;;;;;;13.58;60.94;94737.59;4962590;28;20259;-85
2022/09/26 10:11:49;;;;;;;2.83;1.63;;;;;;;13.12;61.81;94728.44;4950580;28;20192;-85
2022/09/26 10:14:19;;;;;;;2.10;1.30;;;;;;;13.08;62.50;94728.00;4950815;28;20246;-86
2022/09/26 10:17:09;;;;;;;2.10;1.67;;;;;;;13.31;62.99;94731.28;4966992;28;20591;-85
2022/09/26 10:19:39;;;;;;;2.27;0.90;;;;;;;13.37;62.38;94729.75;4963738;28;20243;-85
2022/09/26 10:22:08;;;;;;;2.73;1.03;;;;;;;13.50;62.34;94724.66;4984643;28;20642;-85
2022/09/26 10:24:39;;;;;;;2.15;1.17;;;;;;;14.15;61.21;94722.84;4965715;28;20185;-84
2022/09/26 10:27:33;;;;;;;2.83;0.90;;;;;;;14.49;60.02;94722.13;4963535;28;20204;-85
2022/09/26 10:30:17;;;;;;;3.50;1.45;;;;;;;14.70;58.72;94716.00;4971000;28;20192;-84
2022/09/26 10:32:44;;;;;;;2.90;1.25;;;;;;;14.45;58.25;94715.63;4942701;28;20251;-85
2022/09/26 10:35:17;;;;;;;2.80;1.10;;;;;;;14.66;58.66;94714.75;4962603;28;20185;-84
2022/09/26 10:37:42;;;;;;;2.45;0.93;;;;;;;14.50;56.91;94717.69;4968571;28;20330;-84
2022/09/26 10:43:31;;;;;;;1.67;1.40;;;;;;;14.34;58.08;94709.13;4959379;28;20235;-85
2022/09/26 10:46:01;;;;;;;2.22;1.02;;;;;;;14.12;59.10;94707.53;4940345;28;20412;-84
2022/09/26 10:48:46;;;;;;;2.33;1.27;;;;;;;14.26;59.37;94708.47;4954440;28;20573;-83
2022/09/26 10:51:26;;;;;;;3.97;1.20;;;;;;;14.29;61.21;94703.66;4967829;28;20189;-84
2022/09/26 10:54:03;;;;;;;5.63;1.23;;;;;;;14.07;61.75;94704.72;4964822;28;20196;-85
2022/09/26 10:56:30;;;;;;;1.40;1.30;;;;;;;14.16;61.98;94706.19;4948763;28;20276;-85
2022/09/26 10:59:03;;;;;;;3.55;1.58;;;;;;;14.00;62.06;94703.84;4965955;28;20321;-85
2022/09/26 11:01:30;;;;;;;2.80;1.33;;;;;;;14.04;61.62;94699.84;4953672;28;20592;-84
2022/09/26 11:04:00;;;;;;;1.98;1.20;;;;;;;14.25;60.55;94696.41;4969636;28;20252;-86
2022/09/26 11:06:32;;;;;;;3.45;1.45;;;;;;;14.73;60.15;94695.50;4973248;28;20294;-87
2022/09/26 11:09:01;;;;;;;3.80;1.30;;;;;;;14.61;60.41;94691.03;4977118;28;20305;-87
2022/09/26 11:11:32;;;;;;;1.85;1.13;;;;;;;14.68;58.89;94686.66;4988746;28;20220;-87
2022/09/26 11:14:05;;;;;;;3.83;1.45;;;;;;;14.55;58.51;94682.13;4975639;28;20248;-87
2022/09/26 11:16:52;;;;;;;1.73;0.98;;;;;;;14.71;58.98;94667.94;4990803;28;20196;-86
2022/09/26 11:19:33;;;;;;;3.88;1.75;;;;;;;14.73;58.83;94668.56;4963546;28;20617;-84
2022/09/26 11:22:03;;;;;;;2.85;1.15;;;;;;;14.75;57.45;94663.94;4962850;28;20182;-84
2022/09/26 11:24:46;;;;;;;3.65;1.20;;;;;;;14.74;56.65;94670.97;4963799;28;20189;-85
2022/09/26 11:27:28;;;;;;;1.55;1.20;;;;;;;14.75;57.62;94650.88;4962420;28;20240;-85
2022/09/26 11:30:07;;;;;;;5.97;1.40;;;;;;;14.90;57.71;94648.13;4963529;28;20216;-85
2022/09/26 11:32:39;;;;;;;3.05;1.27;;;;;;;14.69;55.46;94646.44;4959710;28;20604;-85
2022/09/26 11:35:08;;;;;;;3.90;1.13;;;;;;;14.36;56.62;94636.59;4949994;28;20628;-85
2022/09/26 11:38:09;;;;;;;1.95;1.20;;;;;;;14.21;56.71;94635.09;4962320;28;20252;-85
2022/09/26 11:40:58;;;;;;;2.50;1.10;;;;;;;14.66;57.62;94633.75;4957320;28;20744;-85
2022/09/26 11:43:37;;;;;;;3.05;1.15;;;;;;;14.51;56.41;94623.44;4966558;28;20328;-86
2022/09/26 11:46:46;;;;;;;2.60;1.40;;;;;;;14.93;56.34;94621.56;4935935;28;20243;-86
2022/09/26 11:49:34;;;;;;;2.97;1.25;;;;;;;15.37;57.44;94620.25;4958934;28;20697;-85
2022/09/26 11:52:37;;;;;;;1.67;1.00;;;;;;;14.55;56.50;94613.41;4966918;28;20192;-85
2022/09/26 11:55:06;;;;;;;1.40;0.90;;;;;;;14.43;56.84;94608.72;4955500;28;20188;-85
2022/09/26 11:57:39;;;;;;;2.58;1.30;;;;;;;14.29;56.98;94604.41;4961677;28;20208;-86
2022/09/26 12:00:23;;;;;;;1.48;1.10;;;;;;;14.76;56.73;94589.78;4947727;28;20279;-86
2022/09/26 12:03:07;;;;;;;1.27;1.02;;;;;;;15.10;55.14;94582.81;4958445;28;20195;-86
2022/09/26 12:05:47;;;;;;;2.22;0.98;;;;;;;15.50;54.64;94597.56;4945802;28;20188;-85
2022/09/26 12:08:37;;;;;;;1.00;0.88;;;;;;;14.70;53.52;94599.22;4961710;28;20292;-85
2022/09/26 12:11:16;;;;;;;1.92;1.00;;;;;;;14.38;55.24;94590.19;4965865;28;20196;-85